Time;durP1;ratioP1;P1;durP2;ratioP2;P2;SDS_P1;SDS_P2;PMS_P1;PMS_P2;Temp;Humidity;BMP_temperature;BMP_pressure;BME280_temperature;BME280_humidity;BME280_pressure;Samples;Min_cycle;Max_cycle;Signal;HPM_P1;HPM_P2
2022/01/28 00:01:03;;;;;;;;;57.25;44.25;;;;;9.88;70.55;103227.56;5102002;27;45417;-95
2022/01/28 00:03:31;;;;;;;;;51.00;42.25;;;;;9.92;70.58;103232.03;5098279;27;45315;-94
2022/01/28 00:05:57;;;;;;;;;55.75;43.25;;;;;9.92;70.63;103232.03;5100543;27;45436;-96
2022/01/28 00:08:23;;;;;;;;;56.00;42.50;;;;;9.93;70.65;103230.25;5100494;27;46063;-95
2022/01/28 00:10:51;;;;;;;;;50.75;40.00;;;;;9.92;70.50;103231.13;5092175;27;46709;-90
2022/01/28 00:13:32;;;;;;;;;53.50;41.50;;;;;9.94;71.03;103226.78;5100008;27;45253;-86
2022/01/28 00:40:14;;;;;;;;;61.00;45.00;;;;;9.99;70.66;103241.72;5092678;27;45532;-85
2022/01/28 00:42:40;;;;;;;;;65.75;49.25;;;;;9.98;70.76;103255.72;5100348;27;45684;-87
2022/01/28 00:45:06;;;;;;;;;65.25;49.00;;;;;9.99;70.68;103256.59;5099337;27;45336;-89
2022/01/28 00:47:31;;;;;;;;;64.25;48.75;;;;;9.99;70.85;103264.47;5087689;27;45465;-89
2022/01/28 00:49:56;;;;;;;;;58.75;46.75;;;;;10.02;70.90;103269.78;5093043;27;46054;-88
2022/01/28 00:52:22;;;;;;;;;63.25;47.00;;;;;10.01;70.78;103260.13;5098875;27;46384;-88
2022/01/28 00:54:47;;;;;;;;;62.00;45.75;;;;;9.98;70.86;103250.47;5098168;27;45370;-88
2022/01/28 00:57:13;;;;;;;;;59.50;47.75;;;;;9.99;70.59;103251.34;5101837;27;45609;-87
2022/01/28 00:59:38;;;;;;;;;57.00;44.75;;;;;9.97;70.67;103253.97;5097790;27;45244;-88
2022/01/28 01:02:04;;;;;;;;;54.25;45.25;;;;;9.99;70.82;103269.75;5102726;27;46083;-88
2022/01/28 01:04:29;;;;;;;;;59.50;43.75;;;;;9.98;70.59;103271.47;5101561;27;45246;-88
2022/01/28 01:06:54;;;;;;;;;56.75;46.25;;;;;9.97;70.46;103271.47;5096463;27;45210;-88
2022/01/28 01:09:20;;;;;;;;;53.75;42.75;;;;;9.98;70.78;103278.47;5091660;27;45829;-82
2022/01/28 01:11:45;;;;;;;;;55.25;42.25;;;;;9.97;70.63;103276.72;5100199;27;47091;-82
2022/01/28 01:14:11;;;;;;;;;53.75;43.50;;;;;9.97;70.83;103274.09;5101574;27;45254;-85
2022/01/28 01:17:26;;;;;;;;;55.25;42.00;;;;;9.97;70.71;103267.09;5101686;27;45890;-88
2022/01/28 01:19:29;;;;;;;;;50.00;40.25;;;;;9.99;70.82;103275.00;5089657;27;45467;-89
2022/01/28 01:21:58;;;;;;;;;54.75;41.75;;;;;9.99;70.96;103280.25;5102018;27;45670;-89
2022/01/28 01:24:26;;;;;;;;;48.75;39.00;;;;;9.99;70.84;103280.25;5089386;27;45306;-90
2022/01/28 01:26:52;;;;;;;;;57.75;41.50;;;;;10.00;70.91;103284.66;5101792;27;45207;-89
2022/01/28 01:29:20;;;;;;;;;49.25;40.25;;;;;10.03;71.07;103284.66;5100562;27;46160;-89
2022/01/28 01:31:47;;;;;;;;;54.00;40.25;;;;;10.04;70.94;103283.81;5103116;27;45179;-89
2022/01/28 01:34:17;;;;;;;;;49.50;40.00;;;;;10.04;70.81;103286.44;5103534;27;45316;-89
2022/01/28 01:36:43;;;;;;;;;52.75;40.50;;;;;10.04;71.02;103290.81;5094419;27;45389;-90
2022/01/28 01:39:09;;;;;;;;;54.75;43.00;;;;;10.00;70.92;103285.50;5103118;27;45385;-84
2022/01/28 01:41:43;;;;;;;;;50.25;37.25;;;;;9.99;70.84;103290.75;5091333;27;45353;-87
2022/01/28 01:44:32;;;;;;;;;53.75;42.50;;;;;9.98;70.67;103289.88;5102027;27;45227;-86
2022/01/28 01:52:25;;;;;;;;;58.50;46.50;;;;;9.93;70.75;103316.94;5100663;27;45388;-86
2022/01/28 01:54:52;;;;;;;;;54.50;43.00;;;;;9.93;70.75;103317.84;5101837;27;45251;-87
2022/01/28 01:57:18;;;;;;;;;65.00;49.00;;;;;9.95;71.12;103321.34;5092910;27;45531;-87
2022/01/28 01:59:44;;;;;;;;;59.25;44.00;;;;;9.93;70.57;103314.31;5102852;27;45477;-88
2022/01/28 02:02:11;;;;;;;;;58.50;47.25;;;;;9.93;70.31;103319.56;5101337;27;45406;-89
2022/01/28 02:04:37;;;;;;;;;63.00;48.25;;;;;9.94;70.51;103334.50;5101439;27;45802;-89
2022/01/28 02:07:03;;;;;;;;;58.50;44.25;;;;;9.92;70.20;103333.59;5100323;27;45438;-90
2022/01/28 02:09:29;;;;;;;;;62.00;47.00;;;;;9.89;70.22;103329.19;5101900;27;45406;-89
2022/01/28 02:11:55;;;;;;;;;63.25;48.00;;;;;9.85;70.00;103337.91;5090133;27;45434;-89
2022/01/28 02:14:20;;;;;;;;;63.00;47.50;;;;;9.82;69.90;103338.75;5101104;27;45463;-90
2022/01/28 02:16:45;;;;;;;;;60.25;47.00;;;;;9.82;70.28;103332.59;5098607;27;45310;-90
2022/01/28 02:19:11;;;;;;;;;61.75;49.25;;;;;9.81;70.04;103336.06;5101296;27;45863;-84
2022/01/28 02:21:44;;;;;;;;;65.25;48.50;;;;;9.76;70.13;103331.66;5101149;27;46098;-84
2022/01/28 02:24:10;;;;;;;;;66.75;50.75;;;;;9.74;70.17;103345.63;5098819;27;45912;-85
2022/01/28 02:26:37;;;;;;;;;61.25;49.50;;;;;9.75;69.80;103342.16;5099139;27;45281;-83
2022/01/28 02:29:09;;;;;;;;;64.50;48.50;;;;;9.70;69.82;103338.59;5081839;27;45534;-83
2022/01/28 02:31:35;;;;;;;;;61.75;47.25;;;;;9.68;69.85;103344.69;5088066;27;46070;-85
2022/01/28 02:34:00;;;;;;;;;64.50;48.25;;;;;9.63;69.51;103335.88;5091534;27;45383;-86
2022/01/28 02:36:27;;;;;;;;;61.25;46.25;;;;;9.61;69.38;103342.84;5102412;27;45132;-86
2022/01/28 02:38:53;;;;;;;;;67.25;50.00;;;;;9.59;69.22;103348.94;5088717;27;45748;-86
2022/01/28 02:41:19;;;;;;;;;66.00;50.00;;;;;9.54;69.46;103352.41;5095629;27;46205;-88
2022/01/28 02:44:11;;;;;;;;;62.50;48.00;;;;;9.47;69.12;103347.03;5094956;27;45372;-82
2022/01/28 02:46:39;;;;;;;;;61.00;47.75;;;;;9.42;68.84;103354.84;5100527;27;45455;-81
2022/01/28 02:49:08;;;;;;;;;64.75;50.00;;;;;9.37;68.67;103361.78;5087401;27;47255;-81
2022/01/28 02:51:35;;;;;;;;;66.75;48.25;;;;;9.31;68.88;103362.59;5100360;27;45394;-84
2022/01/28 02:54:11;;;;;;;;;64.50;48.00;;;;;9.26;68.72;103351.13;5090707;27;45150;-81
2022/01/28 02:56:39;;;;;;;;;67.50;50.00;;;;;9.19;68.41;103348.41;5102129;27;45506;-82
2022/01/28 02:59:05;;;;;;;;;62.50;47.00;;;;;9.11;68.44;103344.78;5100176;27;46845;-82
2022/01/28 03:01:30;;;;;;;;;60.50;47.75;;;;;9.06;68.57;103349.09;5101244;27;46493;-82
2022/01/28 03:03:58;;;;;;;;;64.75;49.50;;;;;9.00;68.32;103350.75;5087480;27;45384;-82
2022/01/28 03:06:23;;;;;;;;;66.75;50.00;;;;;8.97;68.85;103357.69;5101963;27;45277;-82
2022/01/28 03:09:12;;;;;;;;;66.25;49.25;;;;;8.95;69.20;103360.28;5098075;27;45915;-82
2022/01/28 03:14:33;;;;;;;;;65.00;48.25;;;;;8.88;69.39;103342.69;5099376;27;45832;-82
2022/01/28 03:19:28;;;;;;;;;61.25;46.75;;;;;8.85;69.76;103342.63;5100460;27;45321;-82
2022/01/28 03:21:57;;;;;;;;;64.50;49.75;;;;;8.85;69.54;103340.00;5093797;27;45455;-86
2022/01/28 03:24:25;;;;;;;;;65.50;50.25;;;;;8.84;69.44;103338.25;5100239;27;45995;-85
2022/01/28 03:26:55;;;;;;;;;67.25;50.75;;;;;8.86;70.18;103339.16;5099754;27;45409;-85
2022/01/28 03:29:20;;;;;;;;;60.75;47.50;;;;;8.85;69.96;103346.13;5087562;27;45251;-87
2022/01/28 03:31:46;;;;;;;;;68.75;53.00;;;;;8.83;70.32;103339.09;5099896;27;45556;-86
2022/01/28 03:34:11;;;;;;;;;62.00;49.00;;;;;8.85;69.91;103353.13;5101387;27;45250;-87
2022/01/28 03:36:37;;;;;;;;;68.00;49.75;;;;;8.86;69.94;103347.03;5100758;27;45385;-86
2022/01/28 03:39:04;;;;;;;;;61.50;48.00;;;;;8.88;70.19;103347.94;5100614;27;45597;-83
2022/01/28 03:41:29;;;;;;;;;67.00;49.50;;;;;8.88;70.58;103347.94;5100711;27;45478;-84
2022/01/28 03:43:58;;;;;;;;;66.25;51.00;;;;;8.87;70.47;103340.91;5100088;27;45247;-84
2022/01/28 03:46:25;;;;;;;;;71.75;53.00;;;;;8.87;70.53;103336.53;5090703;27;45431;-86
2022/01/28 03:48:52;;;;;;;;;67.25;52.00;;;;;8.92;70.31;103349.72;5095695;27;45510;-83
2022/01/28 03:51:18;;;;;;;;;66.50;51.25;;;;;8.92;70.30;103344.50;5100771;27;46528;-85
2022/01/28 03:53:43;;;;;;;;;64.25;49.00;;;;;8.94;70.38;103352.41;5100451;27;45316;-85
2022/01/28 03:56:09;;;;;;;;;67.50;51.00;;;;;8.94;70.47;103353.25;5101296;27;45434;-85
2022/01/28 03:58:34;;;;;;;;;66.50;51.00;;;;;8.94;70.07;103353.25;5097169;27;45350;-84
2022/01/28 04:01:00;;;;;;;;;64.25;50.00;;;;;8.96;70.28;103369.91;5091239;27;45610;-85
2022/01/28 04:11:37;;;;;;;;;65.75;49.00;;;;;9.00;70.41;103381.34;5100132;27;45262;-91
2022/01/28 04:14:18;;;;;;;;;66.00;52.25;;;;;9.04;70.13;103379.66;5099703;27;45288;-93
2022/01/28 04:19:27;;;;;;;;;62.50;48.25;;;;;9.02;70.22;103386.59;5099010;27;45278;-84
2022/01/28 04:21:53;;;;;;;;;61.25;48.50;;;;;9.01;70.19;103380.50;5100541;27;45614;-83
2022/01/28 04:24:18;;;;;;;;;67.50;51.00;;;;;9.05;70.33;103381.41;5100234;27;45360;-89
2022/01/28 04:26:44;;;;;;;;;61.75;47.00;;;;;9.04;70.67;103379.66;5099504;27;45270;-87
2022/01/28 04:29:11;;;;;;;;;67.25;49.50;;;;;9.02;70.10;103376.09;5099591;27;45152;-88
2022/01/28 04:31:41;;;;;;;;;60.25;47.25;;;;;9.03;70.11;103372.63;5098837;27;45602;-87
2022/01/28 04:34:07;;;;;;;;;62.00;48.75;;;;;9.00;70.37;103376.97;5100517;27;45850;-87
2022/01/28 04:36:34;;;;;;;;;59.50;46.75;;;;;9.04;69.97;103390.16;5099277;27;45274;-85
2022/01/28 04:39:09;;;;;;;;;61.00;45.75;;;;;8.99;69.56;103387.44;5099433;27;45506;-84
2022/01/28 04:47:20;;;;;;;;;65.00;49.50;;;;;8.91;69.32;103374.22;5048025;28;45287;-84
2022/01/28 04:50:02;;;;;;;;;62.00;48.50;;;;;8.88;69.30;103380.28;5074103;27;45584;-85
2022/01/28 04:55:47;;;;;;;;;67.00;49.25;;;;;8.75;69.15;103391.41;5099346;27;45436;-84
2022/01/28 05:03:29;;;;;;;;;72.75;53.50;;;;;8.62;69.37;103393.81;5098343;27;45913;-81
2022/01/28 05:25:01;;;;;;;;;63.50;48.25;;;;;8.51;70.14;103430.28;5087767;27;45731;-84
2022/01/28 05:27:18;;;;;;;;;66.50;50.00;;;;;8.52;70.40;103434.66;5097753;27;45585;-80
2022/01/28 05:29:43;;;;;;;;;63.00;49.75;;;;;8.53;70.25;103440.81;5098343;27;45188;-80
2022/01/28 05:32:09;;;;;;;;;59.25;45.75;;;;;8.53;69.76;103439.06;5099229;27;45450;-79
2022/01/28 05:34:35;;;;;;;;;61.75;48.25;;;;;8.52;69.91;103445.16;5098300;27;47280;-79
2022/01/28 05:37:01;;;;;;;;;59.50;45.75;;;;;8.53;70.49;103441.69;5098038;27;45970;-82
2022/01/28 05:39:26;;;;;;;;;64.25;49.50;;;;;8.55;70.57;103446.94;5100010;27;45471;-82
2022/01/28 05:41:52;;;;;;;;;58.25;43.50;;;;;8.54;69.95;103453.06;5096982;27;45423;-85
2022/01/28 05:44:18;;;;;;;;;54.00;43.00;;;;;8.55;70.12;103460.06;5083298;27;45500;-85
2022/01/28 05:46:45;;;;;;;;;56.75;44.25;;;;;8.57;70.47;103458.34;5101389;27;45760;-85
2022/01/28 05:49:13;;;;;;;;;61.75;46.25;;;;;8.54;69.98;103459.16;5102111;27;45538;-85
2022/01/28 05:51:38;;;;;;;;;59.00;44.50;;;;;8.57;70.58;103463.59;5096847;27;45420;-86
2022/01/28 05:54:03;;;;;;;;;58.75;43.25;;;;;8.60;70.13;103468.03;5102703;27;45454;-85
2022/01/28 05:56:31;;;;;;;;;58.25;45.50;;;;;8.60;70.28;103470.66;5102941;27;45242;-84
2022/01/28 05:58:56;;;;;;;;;54.75;43.00;;;;;8.60;70.30;103470.66;5099791;27;45542;-84
2022/01/28 06:01:22;;;;;;;;;53.25;42.50;;;;;8.60;70.36;103482.03;5102492;27;45218;-86
2022/01/28 06:03:47;;;;;;;;;65.25;50.00;;;;;8.61;70.54;103490.81;5087516;27;46822;-82
2022/01/28 06:06:21;;;;;;;;;69.50;51.00;;;;;8.63;70.29;103494.34;5100625;27;45259;-81
2022/01/28 06:08:56;;;;;;;;;66.25;48.50;;;;;8.62;70.42;103500.41;5101541;27;45229;-83
2022/01/28 06:11:23;;;;;;;;;64.25;48.00;;;;;8.61;70.48;103498.66;5101254;27;45596;-84
2022/01/28 06:13:49;;;;;;;;;67.00;50.75;;;;;8.60;70.28;103500.41;5100255;27;45543;-86
2022/01/28 06:16:16;;;;;;;;;67.50;50.75;;;;;8.61;70.78;103498.66;5102457;27;45416;-87
2022/01/28 06:18:42;;;;;;;;;67.75;49.75;;;;;8.64;70.19;103502.22;5099917;27;45342;-83
2022/01/28 06:21:08;;;;;;;;;61.75;46.50;;;;;8.62;70.37;103503.94;5100992;27;47131;-86
2022/01/28 06:23:35;;;;;;;;;74.00;52.25;;;;;8.65;70.04;103493.50;5100999;27;48096;-96
2022/01/28 06:26:00;;;;;;;;;64.25;47.25;;;;;8.64;70.62;103501.38;5100393;27;45208;-82
2022/01/28 06:28:26;;;;;;;;;67.75;49.00;;;;;8.64;70.15;103498.75;5099894;27;45520;-82
2022/01/28 06:30:52;;;;;;;;;71.50;52.25;;;;;8.64;70.57;103490.88;5100818;27;45499;-81
2022/01/28 06:33:17;;;;;;;;;67.25;50.25;;;;;8.64;70.23;103499.59;5101324;27;45339;-81
2022/01/28 06:35:44;;;;;;;;;67.50;49.75;;;;;8.65;70.28;103490.88;5101045;27;45483;-84
2022/01/28 06:38:10;;;;;;;;;70.50;51.75;;;;;8.66;70.24;103491.78;5102940;27;45602;-80
2022/01/28 06:40:36;;;;;;;;;65.50;49.00;;;;;8.64;70.11;103490.88;5098358;27;46137;-80
2022/01/28 06:43:01;;;;;;;;;69.50;52.25;;;;;8.65;70.39;103485.66;5097985;27;48344;-80
2022/01/28 06:45:26;;;;;;;;;64.00;48.50;;;;;8.67;70.48;103488.28;5099807;27;45283;-80
2022/01/28 06:47:52;;;;;;;;;70.00;51.00;;;;;8.66;69.99;103483.91;5101232;27;46004;-81
2022/01/28 06:50:17;;;;;;;;;65.75;50.00;;;;;8.66;70.09;103486.53;5098427;27;45209;-82
2022/01/28 06:52:43;;;;;;;;;67.25;48.75;;;;;8.65;70.03;103487.38;5099488;27;46203;-82
2022/01/28 06:55:14;;;;;;;;;65.25;48.00;;;;;8.67;70.12;103498.78;5100352;27;45198;-82
2022/01/28 06:57:40;;;;;;;;;63.75;47.00;;;;;8.66;70.44;103502.28;5101213;27;45352;-81
2022/01/28 07:00:07;;;;;;;;;58.50;46.25;;;;;8.66;70.25;103503.16;5092095;27;45529;-81
2022/01/28 07:02:33;;;;;;;;;57.00;45.25;;;;;8.66;70.59;103499.66;5100479;27;45532;-81
2022/01/28 07:04:59;;;;;;;;;61.50;47.50;;;;;8.69;70.03;103507.59;5100784;27;45283;-81
2022/01/28 07:07:25;;;;;;;;;59.00;45.75;;;;;8.72;70.50;103505.00;5101353;27;45325;-80
2022/01/28 07:09:52;;;;;;;;;53.75;41.75;;;;;8.71;70.27;103508.50;5100698;27;45507;-81
2022/01/28 07:12:17;;;;;;;;;61.50;47.50;;;;;8.73;70.53;103512.03;5100628;27;46575;-82
2022/01/28 07:14:43;;;;;;;;;57.75;45.75;;;;;8.76;70.08;103513.81;5100360;27;45449;-81
2022/01/28 07:17:09;;;;;;;;;55.50;42.75;;;;;8.74;70.38;103507.66;5099181;27;45357;-81
2022/01/28 07:19:34;;;;;;;;;56.75;43.50;;;;;8.74;70.16;103512.91;5101516;27;45462;-81
2022/01/28 07:22:00;;;;;;;;;63.00;48.50;;;;;8.75;70.15;103514.66;5099715;27;47157;-81
2022/01/28 07:24:25;;;;;;;;;61.50;46.00;;;;;8.74;70.10;103508.53;5101462;27;45428;-81
2022/01/28 07:26:51;;;;;;;;;59.75;45.25;;;;;8.74;70.47;103515.53;5100080;27;45422;-81
2022/01/28 07:29:17;;;;;;;;;63.25;46.25;;;;;8.76;70.35;103521.69;5099345;27;47084;-81
2022/01/28 07:31:43;;;;;;;;;60.50;45.75;;;;;8.76;70.19;103527.81;5100732;27;45240;-82
2022/01/28 07:34:08;;;;;;;;;56.75;45.25;;;;;8.77;70.16;103531.31;5091973;27;45404;-81
2022/01/28 07:36:35;;;;;;;;;60.75;46.75;;;;;8.78;70.15;103531.34;5101390;27;45207;-81
2022/01/28 07:39:00;;;;;;;;;55.75;45.00;;;;;8.79;70.31;103537.47;5097453;27;46081;-80
2022/01/28 07:41:26;;;;;;;;;54.75;42.00;;;;;8.81;70.47;103540.13;5095275;27;46354;-80
2022/01/28 07:43:52;;;;;;;;;64.25;46.75;;;;;8.81;69.97;103546.28;5095478;27;45563;-80
2022/01/28 07:46:18;;;;;;;;;62.50;46.25;;;;;8.84;70.22;103545.44;5098252;27;45470;-80
2022/01/28 07:48:43;;;;;;;;;65.00;45.00;;;;;8.82;70.04;103540.16;5097279;27;45471;-80
2022/01/28 07:51:08;;;;;;;;;59.25;45.50;;;;;8.85;70.29;103553.34;5095479;27;45523;-80
2022/01/28 07:53:34;;;;;;;;;61.00;47.25;;;;;8.85;70.17;103553.34;5100451;27;45485;-80
2022/01/28 07:55:59;;;;;;;;;58.25;46.25;;;;;8.87;70.29;103558.59;5097921;27;45377;-80
2022/01/28 07:58:25;;;;;;;;;60.50;45.25;;;;;8.86;70.30;103552.50;5099259;27;45566;-80
2022/01/28 08:00:50;;;;;;;;;63.00;49.75;;;;;8.88;70.18;103563.00;5100090;27;46540;-80
2022/01/28 08:03:16;;;;;;;;;59.50;47.00;;;;;8.91;70.31;103563.09;5088877;27;45699;-79
2022/01/28 08:05:41;;;;;;;;;61.00;47.25;;;;;8.92;70.39;103571.81;5097554;27;45261;-80
2022/01/28 08:08:08;;;;;;;;;61.00;45.75;;;;;8.92;70.42;103574.44;5093522;27;47027;-79
2022/01/28 08:10:35;;;;;;;;;61.75;49.25;;;;;8.95;70.40;103578.00;5091381;27;46202;-80
2022/01/28 08:13:05;;;;;;;;;60.50;46.50;;;;;8.97;70.66;103589.41;5095213;27;45420;-79
2022/01/28 08:15:31;;;;;;;;;57.75;45.50;;;;;9.02;70.16;103589.50;5085090;27;45612;-79
2022/01/28 08:17:57;;;;;;;;;63.25;48.25;;;;;9.02;70.67;103586.00;5098104;27;45565;-79
2022/01/28 08:20:23;;;;;;;;;61.50;47.25;;;;;9.03;70.98;103577.28;5086733;27;45444;-79
2022/01/28 08:22:56;;;;;;;;;53.00;43.00;;;;;9.05;70.07;103579.09;5098258;27;45747;-80
2022/01/28 08:25:23;;;;;;;;;60.50;45.25;;;;;9.09;70.66;103580.00;5091961;27;45451;-80
2022/01/28 08:27:49;;;;;;;;;65.00;49.25;;;;;9.11;71.33;103578.31;5099665;27;45465;-80
2022/01/28 08:30:17;;;;;;;;;62.25;48.75;;;;;9.13;70.63;103587.09;5078590;27;47498;-80
2022/01/28 08:32:44;;;;;;;;;58.50;44.00;;;;;9.15;70.51;103590.63;5086169;27;45949;-80
2022/01/28 08:35:11;;;;;;;;;62.75;45.50;;;;;9.20;70.74;103588.09;5084131;27;45489;-80
2022/01/28 08:37:36;;;;;;;;;60.75;48.00;;;;;9.22;70.37;103595.16;5088718;27;45961;-80
2022/01/28 08:40:05;;;;;;;;;58.00;45.50;;;;;9.25;70.71;103594.31;5094042;27;45420;-80
2022/01/28 08:42:30;;;;;;;;;58.75;45.75;;;;;9.25;70.17;103602.19;5080108;27;45251;-80
2022/01/28 08:44:55;;;;;;;;;56.50;42.00;;;;;9.27;70.01;103608.34;5086290;27;45529;-80
2022/01/28 08:47:21;;;;;;;;;60.50;44.50;;;;;9.28;70.42;103615.38;5098341;27;45666;-80
2022/01/28 08:49:46;;;;;;;;;62.00;46.75;;;;;9.29;70.12;103611.00;5093489;27;47882;-81
2022/01/28 08:52:12;;;;;;;;;60.50;48.00;;;;;9.31;70.27;103619.81;5084659;27;45729;-80
2022/01/28 08:54:38;;;;;;;;;61.50;46.75;;;;;9.32;70.12;103624.19;5094909;27;45465;-81
2022/01/28 08:57:04;;;;;;;;;64.75;46.25;;;;;9.35;70.40;103632.13;5098521;27;45543;-80
2022/01/28 08:59:29;;;;;;;;;55.75;43.50;;;;;9.34;70.41;103630.34;5093691;27;45565;-80
2022/01/28 09:01:55;;;;;;;;;57.50;43.75;;;;;9.36;70.02;103635.66;5091221;27;45409;-80
2022/01/28 09:04:20;;;;;;;;;60.75;45.75;;;;;9.39;70.29;103643.56;5094261;27;46783;-80
2022/01/28 09:06:46;;;;;;;;;58.25;44.25;;;;;9.41;69.94;103640.09;5092808;27;45985;-80
2022/01/28 09:09:11;;;;;;;;;56.50;45.25;;;;;9.45;70.07;103655.09;5098447;27;45563;-80
2022/01/28 09:14:14;;;;;;;;;56.25;44.25;;;;;9.51;69.75;103654.28;5097801;27;45469;-80
2022/01/28 09:16:40;;;;;;;;;64.50;45.50;;;;;9.53;69.65;103649.09;5096887;27;45613;-80
2022/01/28 09:19:06;;;;;;;;;55.50;41.25;;;;;9.58;69.81;103650.03;5090161;27;45570;-80
2022/01/28 09:21:32;;;;;;;;;58.75;46.00;;;;;9.62;69.67;103656.25;5102149;27;45511;-80
2022/01/28 09:23:58;;;;;;;;;60.75;46.25;;;;;9.62;69.54;103651.00;5101950;27;45319;-80
2022/01/28 09:26:24;;;;;;;;;57.00;44.50;;;;;9.64;69.51;103650.16;5102240;27;46696;-81
2022/01/28 09:28:49;;;;;;;;;58.50;45.00;;;;;9.66;69.80;103655.44;5098181;27;45262;-80
2022/01/28 09:31:14;;;;;;;;;58.00;43.50;;;;;9.69;69.65;103647.63;5091112;27;45356;-80
2022/01/28 09:33:40;;;;;;;;;56.75;43.25;;;;;9.73;69.47;103653.81;5092685;27;45544;-80
2022/01/28 09:36:07;;;;;;;;;53.50;43.25;;;;;9.76;69.13;103653.84;5101515;27;45744;-80
2022/01/28 09:38:32;;;;;;;;;55.50;43.25;;;;;9.80;69.21;103655.69;5102237;27;45521;-80
2022/01/28 09:41:00;;;;;;;;;61.25;46.00;;;;;9.83;68.93;103666.22;5100448;27;45357;-80
2022/01/28 09:43:26;;;;;;;;;56.00;45.25;;;;;9.86;69.03;103660.16;5101377;27;45413;-81
2022/01/28 09:45:52;;;;;;;;;55.25;41.50;;;;;9.86;68.84;103655.78;5102288;27;45196;-80
2022/01/28 09:48:19;;;;;;;;;51.25;42.75;;;;;9.86;68.79;103655.78;5101729;27;45470;-80
2022/01/28 09:50:46;;;;;;;;;52.00;43.00;;;;;9.86;68.77;103660.16;5099250;27;45528;-80
2022/01/28 09:53:13;;;;;;;;;55.25;42.50;;;;;9.88;68.50;103661.94;5101206;27;45332;-80
2022/01/28 09:55:39;;;;;;;;;52.00;40.25;;;;;9.90;68.45;103656.75;5102648;27;45457;-80
2022/01/28 09:58:04;;;;;;;;;49.75;37.00;;;;;9.92;68.29;103654.13;5094270;27;45805;-81
2022/01/28 10:00:34;;;;;;;;;52.00;40.25;;;;;9.98;68.32;103654.22;5091140;27;45450;-82
2022/01/28 10:03:08;;;;;;;;;52.25;40.00;;;;;10.02;68.46;103661.31;5094388;27;45416;-81
2022/01/28 10:05:36;;;;;;;;;48.75;36.00;;;;;10.03;68.02;103652.56;5097043;27;45434;-81
2022/01/28 10:08:08;;;;;;;;;45.00;34.75;;;;;10.07;67.31;103651.75;5097148;27;46167;-81
2022/01/28 10:11:05;;;;;;;;;47.25;34.00;;;;;10.08;67.59;103661.41;5102442;27;45782;-81
2022/01/28 10:13:43;;;;;;;;;46.50;34.25;;;;;10.08;67.56;103657.88;5100331;27;45367;-81
2022/01/28 10:16:12;;;;;;;;;42.50;33.75;;;;;10.12;67.88;103655.31;5085872;27;45352;-81
2022/01/28 10:18:38;;;;;;;;;39.75;34.25;;;;;10.20;67.67;103662.44;5100444;27;45502;-80
2022/01/28 10:21:16;;;;;;;;;36.67;30.67;;;;;10.20;66.85;103659.81;5089490;27;45456;-80
2022/01/28 10:23:42;;;;;;;;;38.00;32.00;;;;;10.25;67.04;103671.28;5091176;27;45521;-80
2022/01/28 10:26:08;;;;;;;;;40.50;33.00;;;;;10.26;67.26;103665.19;5111049;27;45495;-79
2022/01/28 10:28:33;;;;;;;;;40.25;32.00;;;;;10.30;66.59;103666.09;5099879;27;46205;-80
2022/01/28 10:31:03;;;;;;;;;38.50;28.50;;;;;10.32;66.36;103661.78;5096643;27;45250;-80
2022/01/28 10:33:28;;;;;;;;;39.00;32.25;;;;;10.39;66.93;103668.00;5091742;27;45443;-80
2022/01/28 10:36:00;;;;;;;;;32.75;28.25;;;;;10.45;66.00;103670.72;5088510;27;45398;-80
2022/01/28 10:38:34;;;;;;;;;39.75;31.25;;;;;10.46;65.54;103669.88;5093899;27;45292;-80
2022/01/28 10:41:10;;;;;;;;;32.00;27.50;;;;;10.50;65.84;103666.41;5090365;27;45313;-80
2022/01/28 10:43:52;;;;;;;;;36.75;29.75;;;;;10.52;66.14;103662.09;5098048;27;45300;-80
2022/01/28 10:46:34;;;;;;;;;33.50;29.25;;;;;10.57;65.58;103668.28;5098744;27;45295;-80
2022/01/28 10:49:08;;;;;;;;;33.00;31.00;;;;;10.55;65.38;103674.41;5087819;27;45423;-80
2022/01/28 10:51:42;;;;;;;;;37.25;31.00;;;;;10.58;65.05;103679.72;5095554;27;45395;-80
2022/01/28 10:54:16;;;;;;;;;32.25;28.75;;;;;10.56;65.08;103684.97;5093274;27;45483;-80
2022/01/28 10:57:02;;;;;;;;;46.00;32.00;;;;;10.56;64.83;103684.97;5099525;27;45578;-80
2022/01/28 10:59:40;;;;;;;;;32.50;26.25;;;;;10.57;64.71;103691.06;5099344;27;45555;-80
2022/01/28 11:02:06;;;;;;;;;35.00;29.25;;;;;10.57;64.65;103697.22;5099624;27;45987;-80
2022/01/28 11:04:33;;;;;;;;;38.00;31.00;;;;;10.56;64.49;103692.84;5089465;27;45546;-80
2022/01/28 11:07:00;;;;;;;;;31.50;27.50;;;;;10.56;64.63;103695.47;5099654;27;46286;-80
2022/01/28 11:09:26;;;;;;;;;37.00;30.75;;;;;10.56;64.43;103691.97;5100229;27;45325;-80
2022/01/28 11:11:53;;;;;;;;;33.50;27.00;;;;;10.58;64.63;103691.13;5087037;27;45286;-80
2022/01/28 11:14:19;;;;;;;;;35.50;27.50;;;;;10.58;63.82;103693.75;5096934;27;45593;-80
2022/01/28 11:16:45;;;;;;;;;29.00;24.50;;;;;10.56;64.09;103700.75;5094140;27;45688;-80
2022/01/28 11:19:15;;;;;;;;;32.25;28.25;;;;;10.58;64.40;103704.28;5087457;27;46516;-80
2022/01/28 11:21:43;;;;;;;;;28.75;24.00;;;;;10.60;64.42;103708.66;5084170;27;45731;-80
2022/01/28 11:24:20;;;;;;;;;33.25;26.50;;;;;10.58;64.08;103688.50;5092286;27;45343;-80
2022/01/28 11:26:54;;;;;;;;;36.00;27.00;;;;;10.62;63.99;103688.53;5101171;27;45361;-80
2022/01/28 11:29:25;;;;;;;;;31.00;27.00;;;;;10.63;64.50;103683.28;5087840;27;45596;-80
2022/01/28 11:31:56;;;;;;;;;32.50;29.50;;;;;10.67;64.21;103684.19;5098920;27;45716;-80
2022/01/28 11:34:30;;;;;;;;;36.25;29.75;;;;;10.66;64.06;103674.56;5090016;27;45335;-80
2022/01/28 11:37:15;;;;;;;;;34.50;29.50;;;;;10.72;64.39;103684.28;5097040;27;45535;-80
2022/01/28 11:39:45;;;;;;;;;34.50;31.50;;;;;10.72;64.23;103681.66;5093924;27;45413;-80
2022/01/28 11:42:24;;;;;;;;;34.25;28.50;;;;;10.74;64.20;103683.44;5093628;27;45236;-80
2022/01/28 11:44:49;;;;;;;;;30.25;26.25;;;;;10.75;63.81;103673.78;5086709;27;45400;-80
2022/01/28 11:47:28;;;;;;;;;34.67;29.67;;;;;10.74;63.80;103667.63;5092179;27;45719;-80
2022/01/28 11:50:17;;;;;;;;;32.50;26.25;;;;;10.71;64.00;103662.38;5087253;27;46365;-80
2022/01/28 11:52:54;;;;;;;;;30.50;25.50;;;;;10.71;63.69;103667.63;5101823;27;45332;-80
2022/01/28 11:55:26;;;;;;;;;27.25;23.50;;;;;10.69;62.63;103662.31;5099655;27;45520;-80
2022/01/28 11:57:52;;;;;;;;;31.25;24.50;;;;;10.60;62.78;103662.19;5099961;27;45223;-80
2022/01/28 12:00:45;;;;;;;;;32.25;25.25;;;;;10.53;63.04;103653.34;5100760;27;46448;-80
2022/01/28 12:03:23;;;;;;;;;32.00;28.75;;;;;10.48;63.34;103633.94;5096965;27;45452;-80
2022/01/28 12:05:51;;;;;;;;;37.00;31.50;;;;;10.47;63.44;103651.47;5096846;27;45397;-80
2022/01/28 12:08:17;;;;;;;;;33.00;29.00;;;;;10.47;63.69;103642.69;5100582;27;45524;-80
2022/01/28 12:10:45;;;;;;;;;33.50;28.25;;;;;10.49;63.71;103629.59;5086330;27;46399;-80
2022/01/28 12:13:15;;;;;;;;;32.75;27.00;;;;;10.50;63.72;103611.19;5097474;27;45705;-80
2022/01/28 12:15:58;;;;;;;;;33.25;25.50;;;;;10.56;63.46;103616.56;5091918;27;45439;-80
2022/01/28 12:18:25;;;;;;;;;33.00;28.25;;;;;10.52;63.59;103613.88;5097321;27;45384;-80
2022/01/28 12:20:52;;;;;;;;;35.50;27.00;;;;;10.55;63.44;103613.91;5082796;27;45438;-80
2022/01/28 12:23:18;;;;;;;;;32.25;26.75;;;;;10.55;63.65;103609.53;5090418;27;45190;-80
2022/01/28 12:25:43;;;;;;;;;27.75;25.25;;;;;10.58;63.69;103620.09;5081835;27;45211;-80
2022/01/28 12:28:14;;;;;;;;;25.75;23.25;;;;;10.59;63.48;103618.38;5091933;27;45242;-80
2022/01/28 12:30:42;;;;;;;;;29.75;26.75;;;;;10.56;63.19;103598.16;5091222;27;46261;-80
2022/01/28 12:33:10;;;;;;;;;31.25;27.50;;;;;10.57;63.52;103583.25;5099100;27;45425;-80
2022/01/28 12:35:40;;;;;;;;;30.75;28.25;;;;;10.57;63.41;103573.63;5099423;27;45677;-80
2022/01/28 12:38:06;;;;;;;;;30.75;27.75;;;;;10.62;64.05;103578.06;5086246;27;45461;-80
2022/01/28 12:40:39;;;;;;;;;39.50;30.50;;;;;10.66;63.69;103577.22;5098418;27;46953;-80